Time;durP1;ratioP1;P1;durP2;ratioP2;P2;SDS_P1;SDS_P2;PMS_P1;PMS_P2;Temp;Humidity;BMP_temperature;BMP_pressure;BME280_temperature;BME280_humidity;BME280_pressure;Samples;Min_cycle;Max_cycle;Signal;HPM_P1;HPM_P2
2023/09/22 00:00:05;;;;;;;15.35;13.00;;;13.50;99.90;;;;;;6208615;23;20017;-81
2023/09/22 00:02:31;;;;;;;12.68;11.68;;;13.50;99.90;;;;;;6208733;23;20339;-81
2023/09/22 00:04:57;;;;;;;13.38;11.63;;;13.50;99.90;;;;;;6183165;23;20107;-81
2023/09/22 00:07:23;;;;;;;14.93;12.32;;;13.60;99.90;;;;;;6183511;23;20012;-81
2023/09/22 00:09:49;;;;;;;11.80;10.60;;;13.60;99.90;;;;;;6183701;23;20024;-81
2023/09/22 00:12:15;;;;;;;12.18;11.13;;;13.60;99.90;;;;;;6183378;23;20347;-81
2023/09/22 00:14:41;;;;;;;13.70;11.77;;;13.60;99.90;;;;;;6210654;23;20458;-80
2023/09/22 00:17:07;;;;;;;12.77;11.38;;;13.60;99.90;;;;;;6238577;23;20020;-82
2023/09/22 00:19:32;;;;;;;12.43;11.20;;;13.70;99.90;;;;;;6212880;23;20016;-81
2023/09/22 00:21:58;;;;;;;16.10;13.57;;;13.70;99.90;;;;;;6188621;23;20085;-81
2023/09/22 00:24:24;;;;;;;14.05;12.70;;;13.70;99.90;;;;;;6240288;23;20008;-81
2023/09/22 00:26:50;;;;;;;11.70;10.65;;;13.70;99.90;;;;;;6239310;23;20040;-82
2023/09/22 00:29:15;;;;;;;17.45;13.93;;;13.40;99.90;;;;;;6213832;23;20390;-81
2023/09/22 00:31:41;;;;;;;14.20;12.80;;;13.70;99.90;;;;;;6213607;23;20020;-81
2023/09/22 00:34:08;;;;;;;14.05;12.18;;;13.80;99.90;;;;;;6188033;23;20020;-81
2023/09/22 00:36:33;;;;;;;17.88;14.02;;;13.80;99.90;;;;;;6238626;23;20016;-81
2023/09/22 00:39:00;;;;;;;26.42;17.13;;;13.90;99.90;;;;;;6238511;23;20030;-82
2023/09/22 00:41:25;;;;;;;23.25;19.35;;;13.90;99.90;;;;;;6238679;23;20087;-81
2023/09/22 00:43:51;;;;;;;28.30;18.58;;;13.90;99.90;;;;;;6240636;23;20043;-82
2023/09/22 00:46:22;;;;;;;33.45;19.83;;;13.90;99.90;;;;;;6213495;23;20160;-81
2023/09/22 00:48:49;;;;;;;27.98;19.75;;;13.90;99.90;;;;;;6213080;23;20012;-81
2023/09/22 00:51:18;;;;;;;30.17;20.13;;;13.90;99.90;;;;;;6213144;23;20053;-81
2023/09/22 00:53:43;;;;;;;38.38;22.77;;;13.90;99.90;;;;;;6188112;23;20455;-81
2023/09/22 00:56:09;;;;;;;36.10;23.60;;;13.90;99.90;;;;;;6213358;23;20031;-81
2023/09/22 00:58:36;;;;;;;42.67;24.20;;;14.00;99.90;;;;;;6213235;23;20022;-81
2023/09/22 01:01:02;;;;;;;42.30;24.45;;;14.00;99.90;;;;;;6240108;23;20342;-81
2023/09/22 01:03:30;;;;;;;56.80;26.33;;;14.00;99.90;;;;;;6187586;23;20012;-82
2023/09/22 01:05:55;;;;;;;54.45;25.95;;;14.00;99.90;;;;;;6188051;23;20043;-81
2023/09/22 01:08:21;;;;;;;47.22;25.10;;;14.00;99.90;;;;;;6213336;23;20027;-82
2023/09/22 01:10:47;;;;;;;54.50;26.05;;;14.00;99.90;;;;;;6213508;23;20061;-81
2023/09/22 01:13:13;;;;;;;46.90;26.65;;;14.00;99.90;;;;;;6213223;23;20479;-81
2023/09/22 01:15:43;;;;;;;44.30;27.30;;;14.00;99.90;;;;;;6238163;23;20443;-81
2023/09/22 01:18:12;;;;;;;38.90;25.08;;;14.00;99.90;;;;;;6212469;23;20035;-81
2023/09/22 01:20:40;;;;;;;48.17;28.65;;;14.10;99.90;;;;;;6213107;23;20022;-81
2023/09/22 01:23:06;;;;;;;54.28;29.38;;;14.00;99.90;;;;;;6188520;23;20012;-81
2023/09/22 01:25:32;;;;;;;60.28;29.38;;;14.00;99.90;;;;;;6238486;23;20016;-81
2023/09/22 01:27:57;;;;;;;71.30;31.00;;;14.00;99.90;;;;;;6214480;23;20019;-81
2023/09/22 01:30:23;;;;;;;57.33;28.48;;;14.00;99.90;;;;;;6215154;23;20234;-81
2023/09/22 01:32:49;;;;;;;46.88;28.40;;;14.00;99.90;;;;;;6240162;23;20339;-81
2023/09/22 01:35:14;;;;;;;60.92;31.63;;;14.00;99.90;;;;;;6215011;23;20012;-81
2023/09/22 01:37:51;;;;;;;46.53;29.23;;;14.00;99.90;;;;;;6215167;23;20045;-81
2023/09/22 01:40:17;;;;;;;50.08;29.85;;;14.30;99.90;;;;;;6215546;23;20019;-82
2023/09/22 01:42:43;;;;;;;44.45;27.67;;;14.00;99.90;;;;;;6215069;23;20016;-81
2023/09/22 01:45:10;;;;;;;46.45;27.75;;;14.00;99.90;;;;;;6190260;23;20320;-81
2023/09/22 01:47:36;;;;;;;65.38;31.80;;;14.00;99.90;;;;;;6241414;23;20043;-81
2023/09/22 01:50:02;;;;;;;42.38;29.52;;;14.20;99.90;;;;;;6214984;23;20594;-81
2023/09/22 01:52:28;;;;;;;47.65;30.20;;;14.00;99.90;;;;;;6215439;23;20023;-81
2023/09/22 01:54:54;;;;;;;46.33;27.70;;;14.00;99.90;;;;;;6189962;23;20094;-82
2023/09/22 01:57:20;;;;;;;53.85;32.65;;;14.00;99.90;;;;;;6215022;23;20075;-81
2023/09/22 01:59:46;;;;;;;53.90;33.63;;;14.00;99.90;;;;;;6190004;23;20073;-81
2023/09/22 02:02:14;;;;;;;62.80;35.85;;;14.00;99.90;;;;;;6214209;23;20044;-81
2023/09/22 02:04:40;;;;;;;53.15;32.47;;;14.10;99.90;;;;;;6215161;23;20459;-82
2023/09/22 02:07:06;;;;;;;69.50;36.08;;;14.00;99.90;;;;;;6215201;23;20071;-81
2023/09/22 02:09:32;;;;;;;68.32;36.20;;;14.00;99.90;;;;;;6215125;23;20035;-81
2023/09/22 02:11:57;;;;;;;83.43;34.15;;;14.00;99.90;;;;;;6240246;23;20375;-82
2023/09/22 02:14:23;;;;;;;61.47;34.28;;;14.00;99.90;;;;;;6239973;23;20044;-81
2023/09/22 02:16:49;;;;;;;60.03;35.67;;;13.90;99.90;;;;;;6209050;23;20025;-82
2023/09/22 02:19:15;;;;;;;55.47;34.45;;;13.90;99.90;;;;;;6209482;23;20407;-81
2023/09/22 02:21:41;;;;;;;55.28;32.30;;;13.80;99.90;;;;;;6184436;23;20017;-82
2023/09/22 02:24:07;;;;;;;74.05;33.90;;;14.00;99.90;;;;;;6209740;23;20440;-81
2023/09/22 02:26:33;;;;;;;55.85;31.65;;;13.80;99.90;;;;;;6184553;23;20078;-81
2023/09/22 02:28:59;;;;;;;62.00;34.00;;;13.80;99.90;;;;;;6210081;23;20017;-81
2023/09/22 02:31:26;;;;;;;53.05;31.75;;;13.90;99.90;;;;;;6208943;23;20017;-81
2023/09/22 02:33:52;;;;;;;70.07;35.25;;;14.10;99.90;;;;;;6209427;23;20044;-81
2023/09/22 02:36:18;;;;;;;53.70;32.72;;;13.90;99.90;;;;;;6209463;23;20066;-82
2023/09/22 02:38:43;;;;;;;55.67;35.10;;;13.80;99.90;;;;;;6208742;23;20044;-81
2023/09/22 02:41:14;;;;;;;63.30;36.05;;;13.80;99.90;;;;;;6209525;23;20454;-81
2023/09/22 02:43:39;;;;;;;47.92;31.17;;;13.80;99.90;;;;;;6209533;23;20012;-81
2023/09/22 02:46:05;;;;;;;43.40;30.35;;;13.80;99.90;;;;;;6234167;23;20017;-82
2023/09/22 02:48:31;;;;;;;48.65;32.35;;;13.70;99.90;;;;;;6209374;23;20347;-81
2023/09/22 02:50:57;;;;;;;67.60;35.53;;;13.80;99.90;;;;;;6209162;23;20016;-82
2023/09/22 02:53:23;;;;;;;61.58;34.97;;;13.80;99.90;;;;;;6209434;23;20012;-82
2023/09/22 02:55:49;;;;;;;55.20;34.05;;;13.80;99.90;;;;;;6209354;23;20021;-81
2023/09/22 02:58:16;;;;;;;62.00;33.30;;;14.30;99.90;;;;;;6209515;23;20012;-82
2023/09/22 03:00:44;;;;;;;59.03;34.25;;;13.90;99.90;;;;;;6210517;23;20030;-81
2023/09/22 03:03:12;;;;;;;59.75;33.50;;;14.10;99.90;;;;;;6209341;23;20013;-82
2023/09/22 03:05:38;;;;;;;53.75;31.27;;;14.00;99.90;;;;;;6209187;23;20008;-81
2023/09/22 03:08:04;;;;;;;57.95;32.83;;;14.00;99.90;;;;;;6209502;23;20013;-82
2023/09/22 03:10:31;;;;;;;54.30;32.17;;;14.00;99.90;;;;;;6234417;23;20019;-81
2023/09/22 03:12:57;;;;;;;64.40;34.42;;;14.00;99.90;;;;;;6209066;23;20439;-82
2023/09/22 03:15:23;;;;;;;58.83;33.38;;;14.10;99.90;;;;;;6214204;23;20014;-82
2023/09/22 03:17:49;;;;;;;50.42;31.33;;;14.10;99.90;;;;;;6239204;23;20024;-82
2023/09/22 03:20:17;;;;;;;62.42;34.38;;;14.10;99.90;;;;;;6214215;23;20144;-81
2023/09/22 03:22:43;;;;;;;61.28;34.83;;;14.00;99.90;;;;;;6213960;23;20076;-82
2023/09/22 03:25:10;;;;;;;50.38;32.33;;;13.70;99.90;;;;;;6214338;23;20012;-82
2023/09/22 03:27:36;;;;;;;42.92;30.50;;;14.00;99.90;;;;;;6213680;23;20020;-81
2023/09/22 03:30:04;;;;;;;44.78;30.35;;;14.00;99.90;;;;;;6214064;23;20244;-82
2023/09/22 03:32:29;;;;;;;52.58;32.88;;;14.00;99.90;;;;;;6239510;23;20475;-81
2023/09/22 03:34:57;;;;;;;46.22;29.88;;;14.20;99.90;;;;;;6214239;23;20103;-81
2023/09/22 03:37:27;;;;;;;36.05;26.85;;;14.00;99.90;;;;;;6214045;23;20020;-81
2023/09/22 03:39:56;;;;;;;36.58;26.20;;;13.90;99.90;;;;;;6188998;23;20020;-82
2023/09/22 03:42:23;;;;;;;42.83;29.50;;;13.80;99.90;;;;;;6238848;23;20087;-82
2023/09/22 03:44:49;;;;;;;36.10;26.65;;;13.80;99.90;;;;;;6214177;23;20016;-82
2023/09/22 03:47:14;;;;;;;42.05;28.52;;;14.10;99.90;;;;;;6213842;23;20012;-82
2023/09/22 03:49:40;;;;;;;49.05;33.17;;;13.70;99.90;;;;;;6213823;23;20023;-81
2023/09/22 03:52:06;;;;;;;42.50;28.35;;;13.70;99.90;;;;;;6239398;23;20008;-82
2023/09/22 03:54:31;;;;;;;42.42;29.42;;;13.60;99.90;;;;;;6213722;23;20073;-81
2023/09/22 03:56:57;;;;;;;59.10;29.88;;;13.60;99.90;;;;;;6213404;23;20047;-82
2023/09/22 03:59:23;;;;;;;51.70;30.58;;;13.50;99.90;;;;;;6213716;23;20058;-81
2023/09/22 04:01:49;;;;;;;46.97;29.08;;;13.50;99.90;;;;;;6238830;23;20020;-81
2023/09/22 04:04:15;;;;;;;41.33;29.20;;;13.50;99.90;;;;;;6189194;23;20435;-81
2023/09/22 04:06:40;;;;;;;44.80;30.75;;;13.50;99.90;;;;;;6213722;23;20008;-81
2023/09/22 04:09:07;;;;;;;50.75;32.10;;;13.70;99.90;;;;;;6213758;23;20439;-81
2023/09/22 04:11:36;;;;;;;58.47;32.58;;;14.00;99.90;;;;;;6213567;23;20074;-82
2023/09/22 04:14:02;;;;;;;44.67;28.95;;;13.60;99.90;;;;;;6213621;23;20062;-81
2023/09/22 04:16:28;;;;;;;43.75;28.15;;;13.70;99.90;;;;;;6213679;23;20020;-81
2023/09/22 04:18:54;;;;;;;46.45;31.27;;;13.70;99.90;;;;;;6238818;23;20012;-81
2023/09/22 04:21:23;;;;;;;48.85;31.23;;;14.00;99.90;;;;;;6238747;23;20012;-81
2023/09/22 04:23:57;;;;;;;54.60;31.45;;;13.80;99.90;;;;;;6213679;23;20056;-81
2023/09/22 04:26:29;;;;;;;55.50;32.35;;;13.80;99.90;;;;;;6213126;23;20012;-82
2023/09/22 04:28:56;;;;;;;50.97;32.13;;;13.80;99.90;;;;;;6213722;23;20038;-81
2023/09/22 04:31:24;;;;;;;52.13;30.45;;;14.30;99.90;;;;;;6213435;23;20026;-81
2023/09/22 04:33:51;;;;;;;53.75;30.38;;;13.80;99.90;;;;;;6213404;23;20023;-82
2023/09/22 04:36:23;;;;;;;47.63;30.63;;;13.80;99.90;;;;;;6213642;23;20062;-82
2023/09/22 04:38:52;;;;;;;53.13;31.65;;;13.80;99.90;;;;;;6213655;23;20487;-82
2023/09/22 04:41:21;;;;;;;45.00;31.27;;;13.70;99.90;;;;;;6213065;23;20380;-82
2023/09/22 04:43:46;;;;;;;53.78;33.70;;;13.90;99.90;;;;;;6240506;23;20429;-82
2023/09/22 04:46:13;;;;;;;47.30;32.05;;;13.70;99.90;;;;;;6213421;23;20039;-82
2023/09/22 04:48:39;;;;;;;43.67;31.67;;;14.00;99.90;;;;;;6188427;23;20039;-81
2023/09/22 04:51:05;;;;;;;52.55;33.63;;;13.70;99.90;;;;;;6213470;23;20026;-81
2023/09/22 04:53:32;;;;;;;46.40;33.90;;;13.60;99.90;;;;;;6240230;23;20004;-81
2023/09/22 04:56:06;;;;;;;46.30;33.25;;;13.60;99.90;;;;;;6240054;23;20020;-82
2023/09/22 04:58:32;;;;;;;52.67;33.00;;;13.60;99.90;;;;;;6213289;23;20355;-81
2023/09/22 05:01:01;;;;;;;46.13;31.65;;;13.50;99.90;;;;;;6238811;23;20012;-81
2023/09/22 05:03:28;;;;;;;53.78;32.00;;;13.50;99.90;;;;;;6213206;23;20021;-82
2023/09/22 05:05:53;;;;;;;49.78;32.03;;;13.50;99.90;;;;;;6213247;23;20115;-82
2023/09/22 05:08:20;;;;;;;53.92;33.80;;;13.40;99.90;;;;;;6213231;23;20074;-81
2023/09/22 05:10:48;;;;;;;51.20;35.75;;;13.40;99.90;;;;;;6212672;23;20062;-81
2023/09/22 05:13:18;;;;;;;55.40;35.80;;;13.40;99.90;;;;;;6238558;23;20084;-82
2023/09/22 05:15:45;;;;;;;55.50;34.55;;;13.40;99.90;;;;;;6212785;23;20439;-81
2023/09/22 05:18:13;;;;;;;55.30;37.30;;;13.40;99.90;;;;;;6240107;23;20385;-81
2023/09/22 05:20:40;;;;;;;58.33;35.53;;;13.40;99.90;;;;;;6213622;23;20304;-81
2023/09/22 05:23:06;;;;;;;72.72;39.35;;;13.40;99.90;;;;;;6213032;23;20052;-81
2023/09/22 05:25:37;;;;;;;58.15;37.65;;;13.40;99.90;;;;;;6212756;23;20054;-81
2023/09/22 05:28:04;;;;;;;61.25;39.50;;;13.30;99.90;;;;;;6213293;23;20008;-81
2023/09/22 05:30:31;;;;;;;52.58;36.70;;;13.70;99.90;;;;;;6213092;23;20012;-81
2023/09/22 05:32:57;;;;;;;66.20;40.95;;;13.30;99.90;;;;;;6213508;23;20457;-81
2023/09/22 05:35:23;;;;;;;52.70;37.15;;;13.10;99.90;;;;;;6238342;23;20063;-81
2023/09/22 05:37:52;;;;;;;53.92;37.88;;;13.20;99.90;;;;;;6187918;23;20062;-81
2023/09/22 05:40:21;;;;;;;60.63;38.33;;;13.20;99.90;;;;;;6238238;23;20008;-81
2023/09/22 05:42:46;;;;;;;66.20;41.03;;;13.10;99.90;;;;;;6213103;23;20339;-81
2023/09/22 05:45:12;;;;;;;55.42;36.33;;;13.20;99.90;;;;;;6188267;23;20019;-81
2023/09/22 05:47:37;;;;;;;56.17;39.03;;;13.50;99.90;;;;;;6187941;23;20027;-81
2023/09/22 05:50:04;;;;;;;65.82;41.30;;;13.60;99.90;;;;;;6213078;23;20047;-81
2023/09/22 05:52:30;;;;;;;68.53;40.33;;;13.30;99.90;;;;;;6239383;23;20020;-81
2023/09/22 05:54:56;;;;;;;66.97;39.83;;;13.30;99.90;;;;;;6212860;23;20032;-81
2023/09/22 05:57:22;;;;;;;65.28;39.70;;;13.30;99.90;;;;;;6213189;23;20160;-81
2023/09/22 05:59:48;;;;;;;62.03;40.38;;;13.30;99.90;;;;;;6239902;23;20095;-81
2023/09/22 06:02:14;;;;;;;64.78;42.47;;;13.20;99.90;;;;;;6187960;23;20091;-81
2023/09/22 06:04:40;;;;;;;63.45;38.92;;;13.40;99.90;;;;;;6213401;23;20109;-81
2023/09/22 06:07:12;;;;;;;69.22;40.50;;;13.50;99.90;;;;;;6212311;23;20023;-81
2023/09/22 06:09:38;;;;;;;63.47;38.80;;;13.40;99.90;;;;;;6213018;23;20091;-81
2023/09/22 06:12:04;;;;;;;61.35;40.00;;;13.40;99.90;;;;;;6239954;23;20015;-81
2023/09/22 06:14:30;;;;;;;63.33;37.70;;;13.50;99.90;;;;;;6239420;23;20047;-81
2023/09/22 06:16:56;;;;;;;57.97;35.92;;;13.50;99.90;;;;;;6239994;23;20020;-81
2023/09/22 06:19:21;;;;;;;61.10;40.95;;;13.40;99.90;;;;;;6214448;23;20383;-81
2023/09/22 06:21:47;;;;;;;61.55;40.65;;;13.50;99.90;;;;;;6188933;23;20091;-81
2023/09/22 06:24:13;;;;;;;57.05;37.90;;;13.50;99.90;;;;;;6241687;23;20027;-81
2023/09/22 06:26:38;;;;;;;63.03;39.03;;;13.50;99.90;;;;;;6240204;23;20008;-81
2023/09/22 06:29:05;;;;;;;63.42;40.60;;;13.50;99.90;;;;;;6240053;23;20082;-80
2023/09/22 06:31:32;;;;;;;55.45;37.45;;;13.50;99.90;;;;;;6240422;23;20012;-81
2023/09/22 06:33:59;;;;;;;53.33;35.75;;;13.50;99.90;;;;;;6189578;23;20031;-81
2023/09/22 06:36:24;;;;;;;72.88;44.20;;;13.90;99.90;;;;;;6214102;23;20018;-80
2023/09/22 06:38:50;;;;;;;62.45;39.38;;;13.60;99.90;;;;;;6214917;23;20012;-82
2023/09/22 06:41:18;;;;;;;55.83;35.78;;;13.60;99.90;;;;;;6214732;23;20012;-81
2023/09/22 06:43:44;;;;;;;57.15;38.83;;;13.60;99.90;;;;;;6214569;23;20040;-81
2023/09/22 06:46:11;;;;;;;51.13;35.67;;;13.70;99.90;;;;;;6239648;23;20019;-81
2023/09/22 06:48:36;;;;;;;48.67;35.05;;;13.70;99.90;;;;;;6214491;23;20020;-81
2023/09/22 06:51:02;;;;;;;52.25;35.28;;;13.70;99.90;;;;;;6239319;23;20026;-80
2023/09/22 06:53:29;;;;;;;47.53;36.15;;;13.80;99.90;;;;;;6241314;23;20012;-81
2023/09/22 06:56:11;;;;;;;46.67;31.58;;;13.80;99.90;;;;;;6214557;23;20465;-81
2023/09/22 06:58:40;;;;;;;44.72;34.90;;;13.90;99.90;;;;;;6214436;23;20020;-81
2023/09/22 07:01:07;;;;;;;43.75;31.35;;;13.90;99.90;;;;;;6214335;23;20012;-81
2023/09/22 07:03:33;;;;;;;36.53;30.40;;;13.90;99.90;;;;;;6239578;23;20027;-81
2023/09/22 07:05:59;;;;;;;38.55;31.02;;;13.90;99.90;;;;;;6213972;23;20366;-81
2023/09/22 07:08:25;;;;;;;40.92;34.92;;;14.30;99.90;;;;;;6214575;23;20066;-81
2023/09/22 07:10:54;;;;;;;43.50;30.88;;;14.00;99.90;;;;;;6239686;23;20020;-81
2023/09/22 07:13:20;;;;;;;40.22;31.63;;;14.00;99.90;;;;;;6189293;23;20027;-81
2023/09/22 07:15:46;;;;;;;34.85;29.13;;;14.00;99.90;;;;;;6240890;23;20044;-81
2023/09/22 07:18:12;;;;;;;37.40;32.00;;;14.10;99.90;;;;;;6213823;23;20379;-81
2023/09/22 07:20:44;;;;;;;34.55;27.98;;;14.20;99.90;;;;;;6213524;23;20023;-81
2023/09/22 07:23:10;;;;;;;37.85;31.88;;;14.20;99.90;;;;;;6214510;23;20012;-81
2023/09/22 07:25:36;;;;;;;35.80;27.98;;;14.30;99.90;;;;;;6214102;23;20459;-81
2023/09/22 07:28:01;;;;;;;37.10;29.45;;;14.20;99.90;;;;;;6214083;23;20113;-81
2023/09/22 07:30:29;;;;;;;34.90;30.75;;;13.80;99.90;;;;;;6213899;23;20020;-81
2023/09/22 07:32:55;;;;;;;39.00;34.85;;;14.10;99.90;;;;;;6214140;23;20058;-81
2023/09/22 07:35:21;;;;;;;39.40;33.95;;;14.10;99.90;;;;;;6213604;23;20395;-81
2023/09/22 07:37:47;;;;;;;35.20;27.20;;;14.10;99.90;;;;;;6241052;23;20019;-81
2023/09/22 07:40:13;;;;;;;41.60;37.60;;;14.10;99.90;;;;;;6213782;23;20095;-81
2023/09/22 07:42:41;;;;;;;37.45;33.40;;;14.10;99.90;;;;;;6188877;23;20012;-80
2023/09/22 07:45:08;;;;;;;34.63;28.00;;;14.20;99.90;;;;;;6214168;23;20482;-81
2023/09/22 07:47:34;;;;;;;33.22;29.35;;;14.20;99.90;;;;;;6188053;23;20012;-81
2023/09/22 07:50:00;;;;;;;35.42;30.83;;;14.20;99.90;;;;;;6212791;23;20020;-81
2023/09/22 07:52:26;;;;;;;31.55;26.42;;;14.20;99.90;;;;;;6213499;23;20038;-81
2023/09/22 07:54:53;;;;;;;37.92;33.00;;;14.20;99.90;;;;;;6213328;23;20416;-81
2023/09/22 07:57:19;;;;;;;35.00;31.35;;;14.20;99.90;;;;;;6238438;23;20043;-81
2023/09/22 07:59:45;;;;;;;31.48;25.83;;;14.60;99.90;;;;;;6213242;23;20012;-81
2023/09/22 08:02:10;;;;;;;33.60;30.27;;;14.20;99.90;;;;;;6240099;23;20023;-81
2023/09/22 08:04:36;;;;;;;34.03;30.65;;;14.20;99.90;;;;;;6213163;23;20018;-81
2023/09/22 08:07:03;;;;;;;32.17;28.90;;;14.20;99.90;;;;;;6213355;23;20595;-82
2023/09/22 08:09:28;;;;;;;28.80;25.83;;;14.20;99.90;;;;;;6213518;23;20008;-81
2023/09/22 08:11:54;;;;;;;32.35;29.15;;;14.20;99.90;;;;;;6214193;23;20341;-81
2023/09/22 08:14:21;;;;;;;31.10;28.30;;;14.20;99.90;;;;;;6213928;23;20020;-81
2023/09/22 08:16:48;;;;;;;32.33;29.33;;;14.30;99.90;;;;;;6213614;23;20020;-81
2023/09/22 08:19:15;;;;;;;34.13;30.75;;;14.30;99.90;;;;;;6238739;23;20023;-82
2023/09/22 08:21:40;;;;;;;31.60;28.40;;;14.30;99.90;;;;;;6238997;23;20048;-81
2023/09/22 08:24:07;;;;;;;26.27;23.63;;;14.40;99.90;;;;;;6213794;23;20340;-81
2023/09/22 08:26:33;;;;;;;27.55;24.83;;;14.50;99.90;;;;;;6213705;23;20009;-81
2023/09/22 08:29:00;;;;;;;28.33;25.67;;;14.50;99.90;;;;;;6213976;23;20171;-81
2023/09/22 08:31:26;;;;;;;26.95;24.35;;;14.60;99.90;;;;;;6239033;23;20089;-81
2023/09/22 08:33:53;;;;;;;27.40;24.85;;;14.60;99.90;;;;;;6213052;23;20016;-81
2023/09/22 08:36:19;;;;;;;16.85;13.98;;;14.70;99.90;;;;;;6188102;23;20016;-81
2023/09/22 08:38:47;;;;;;;26.23;23.80;;;14.80;99.90;;;;;;6213360;23;20344;-81
2023/09/22 08:41:13;;;;;;;26.10;23.83;;;14.80;99.90;;;;;;6188908;23;20091;-81
2023/09/22 08:43:40;;;;;;;23.40;20.50;;;14.80;99.90;;;;;;6238830;23;20004;-82
2023/09/22 08:46:06;;;;;;;20.48;18.35;;;14.90;99.90;;;;;;6213490;23;20059;-81
2023/09/22 08:48:31;;;;;;;14.82;13.18;;;14.90;99.90;;;;;;6213166;23;20024;-81
2023/09/22 08:50:57;;;;;;;15.30;13.85;;;15.00;99.90;;;;;;6213620;23;20012;-82
2023/09/22 08:53:23;;;;;;;19.70;18.02;;;15.30;99.90;;;;;;6188309;23;20112;-82
2023/09/22 08:55:52;;;;;;;18.02;16.40;;;15.00;99.90;;;;;;6240533;23;20046;-81
2023/09/22 08:58:18;;;;;;;17.95;16.08;;;15.00;99.90;;;;;;6188147;23;20382;-82
2023/09/22 09:00:48;;;;;;;15.52;13.30;;;15.00;99.90;;;;;;6188419;23;20070;-81
2023/09/22 09:03:14;;;;;;;13.40;12.13;;;15.20;99.90;;;;;;6212596;23;20012;-81
2023/09/22 09:05:40;;;;;;;15.85;14.32;;;15.30;99.90;;;;;;6213262;23;20097;-81
2023/09/22 09:08:18;;;;;;;17.23;15.75;;;15.30;99.90;;;;;;6213394;23;20446;-81
2023/09/22 09:10:48;;;;;;;21.45;18.67;;;15.30;99.90;;;;;;6213156;23;20019;-81
2023/09/22 09:13:19;;;;;;;19.90;18.05;;;15.30;99.90;;;;;;6213431;23;20320;-82
2023/09/22 09:15:50;;;;;;;20.90;19.08;;;15.30;99.90;;;;;;6237788;23;20017;-81
2023/09/22 09:18:21;;;;;;;15.38;13.88;;;15.40;99.90;;;;;;6213147;23;20024;-81
2023/09/22 09:21:04;;;;;;;15.40;14.07;;;15.60;99.90;;;;;;6213461;23;20012;-81
2023/09/22 09:23:30;;;;;;;21.05;19.20;;;15.70;99.90;;;;;;6213302;23;20531;-81
2023/09/22 09:25:55;;;;;;;14.20;12.52;;;15.80;99.90;;;;;;6188392;23;20043;-81
2023/09/22 09:28:22;;;;;;;15.88;14.50;;;16.00;99.90;;;;;;6213413;23;20024;-81
2023/09/22 09:30:56;;;;;;;17.60;15.98;;;16.10;99.90;;;;;;6187224;23;20099;-82
2023/09/22 09:33:23;;;;;;;11.43;10.40;;;16.20;99.90;;;;;;6213410;23;20050;-81
2023/09/22 09:35:50;;;;;;;10.63;9.52;;;16.50;99.90;;;;;;6213569;23;20024;-81
2023/09/22 09:38:18;;;;;;;12.07;10.95;;;16.80;99.90;;;;;;6213014;23;20020;-82
2023/09/22 09:40:44;;;;;;;13.70;12.32;;;16.90;99.90;;;;;;6188281;23;20369;-82
2023/09/22 09:43:11;;;;;;;12.02;10.98;;;16.90;99.90;;;;;;6213240;23;20008;-82
2023/09/22 09:45:46;;;;;;;15.07;13.77;;;16.90;99.90;;;;;;6212591;23;20013;-82
2023/09/22 09:48:16;;;;;;;12.35;11.27;;;16.60;99.90;;;;;;6213693;23;20016;-82
2023/09/22 09:50:59;;;;;;;14.35;12.95;;;16.50;99.90;;;;;;6215487;23;20148;-81
2023/09/22 09:53:42;;;;;;;11.57;10.63;;;16.20;99.90;;;;;;6190063;23;20016;-81
2023/09/22 09:56:08;;;;;;;14.37;13.30;;;16.10;99.90;;;;;;6240887;23;20369;-82
2023/09/22 09:58:35;;;;;;;10.65;9.80;;;15.90;99.90;;;;;;6215102;23;20344;-82
2023/09/22 10:01:05;;;;;;;13.35;12.07;;;15.90;99.90;;;;;;6214411;23;20038;-82
2023/09/22 10:03:31;;;;;;;19.40;18.05;;;16.00;99.90;;;;;;6215035;23;20019;-81
2023/09/22 10:05:57;;;;;;;13.75;12.75;;;16.10;99.90;;;;;;6215245;23;20408;-82
2023/09/22 10:08:26;;;;;;;13.80;12.88;;;16.20;99.90;;;;;;6215007;23;20101;-82
2023/09/22 10:10:59;;;;;;;15.43;13.98;;;16.30;99.90;;;;;;6215252;23;20019;-82
2023/09/22 10:13:25;;;;;;;11.77;10.93;;;16.40;99.90;;;;;;6215053;23;20016;-82
2023/09/22 10:15:53;;;;;;;11.32;10.07;;;16.40;99.90;;;;;;6215002;23;20016;-82
2023/09/22 10:18:44;;;;;;;16.50;15.30;;;16.40;99.90;;;;;;6240307;23;20012;-82
2023/09/22 10:21:45;;;;;;;11.75;10.73;;;16.00;99.90;;;;;;6214946;23;20070;-82
2023/09/22 10:24:13;;;;;;;14.95;13.75;;;16.40;99.90;;;;;;6240448;23;20636;-82
2023/09/22 10:26:58;;;;;;;11.88;10.95;;;16.40;99.90;;;;;;6240380;23;20012;-82
2023/09/22 10:29:33;;;;;;;9.32;8.43;;;16.20;99.90;;;;;;6239718;23;20019;-82
2023/09/22 10:32:17;;;;;;;12.55;11.75;;;16.20;99.90;;;;;;6240224;23;20024;-82
2023/09/22 10:34:55;;;;;;;11.45;10.45;;;16.20;99.90;;;;;;6240220;23;20051;-82
2023/09/22 10:37:24;;;;;;;16.27;15.10;;;16.20;99.90;;;;;;6214933;23;20062;-82
2023/09/22 10:40:12;;;;;;;9.85;8.90;;;16.20;99.90;;;;;;6239769;23;20016;-82
2023/09/22 10:42:46;;;;;;;12.98;11.95;;;16.20;99.90;;;;;;6214443;23;20012;-82
2023/09/22 10:45:13;;;;;;;13.50;12.40;;;16.20;99.90;;;;;;6214890;23;20016;-82
2023/09/22 10:47:41;;;;;;;13.57;12.57;;;16.30;99.90;;;;;;6214695;23;20048;-82
2023/09/22 10:50:15;;;;;;;12.27;11.35;;;16.40;99.90;;;;;;6240378;23;20016;-82
2023/09/22 10:53:04;;;;;;;10.07;9.10;;;16.50;99.90;;;;;;6239982;23;20065;-83
2023/09/22 10:55:37;;;;;;;15.10;14.07;;;16.70;99.90;;;;;;6214983;23;20435;-82
2023/09/22 10:58:04;;;;;;;;;;;16.90;99.90;;;;;;6241663;23;20015;-82
2023/09/22 11:00:51;;;;;;;9.65;8.98;;;17.00;99.90;;;;;;6239709;23;20300;-82
2023/09/22 11:03:17;;;;;;;8.82;8.13;;;17.10;99.90;;;;;;6214389;23;20020;-83
2023/09/22 11:05:44;;;;;;;9.68;8.73;;;17.30;99.90;;;;;;6189797;23;20087;-83
2023/09/22 11:08:17;;;;;;;8.95;8.25;;;17.60;99.90;;;;;;6189975;23;20016;-83
2023/09/22 11:10:50;;;;;;;6.72;6.10;;;17.80;99.90;;;;;;6214713;23;20011;-83
2023/09/22 11:13:17;;;;;;;7.07;6.47;;;18.10;99.90;;;;;;6214591;23;20012;-83
2023/09/22 11:16:01;;;;;;;6.93;6.32;;;18.20;99.90;;;;;;6240004;23;20211;-82
2023/09/22 11:18:31;;;;;;;8.57;6.07;;;18.30;99.90;;;;;;6239916;23;20020;-83
2023/09/22 11:21:05;;;;;;;7.32;4.95;;;18.30;99.90;;;;;;6214700;23;20016;-83
2023/09/22 11:23:32;;;;;;;5.72;5.22;;;18.40;99.90;;;;;;6189309;23;20016;-83
2023/09/22 11:26:02;;;;;;;8.35;6.65;;;18.50;99.90;;;;;;6239502;23;20245;-83
2023/09/22 11:28:31;;;;;;;7.43;5.53;;;18.60;99.90;;;;;;6214851;23;20279;-84
2023/09/22 11:31:18;;;;;;;7.60;6.75;;;18.70;99.90;;;;;;6214541;23;20012;-82
2023/09/22 11:33:45;;;;;;;6.72;5.72;;;18.70;99.90;;;;;;6239979;23;20066;-83
2023/09/22 11:36:12;;;;;;;6.63;6.03;;;18.70;99.90;;;;;;6214296;23;20012;-83
2023/09/22 11:38:45;;;;;;;7.72;7.07;;;18.80;99.90;;;;;;6214397;23;20071;-83
2023/09/22 11:41:14;;;;;;;8.02;7.32;;;18.70;99.90;;;;;;6213581;23;20012;-83
2023/09/22 11:43:42;;;;;;;6.70;5.78;;;18.70;99.90;;;;;;6239579;23;20455;-83
2023/09/22 11:46:11;;;;;;;6.72;6.22;;;18.70;99.90;;;;;;6214538;23;20016;-83
2023/09/22 11:49:04;;;;;;;6.43;4.95;;;18.60;99.90;;;;;;6214302;23;20031;-83
2023/09/22 11:51:45;;;;;;;7.82;7.28;;;18.60;99.90;;;;;;6189745;23;20027;-82
2023/09/22 11:54:15;;;;;;;5.20;4.78;;;18.50;99.90;;;;;;6239465;23;20020;-82
2023/09/22 11:56:41;;;;;;;6.13;5.53;;;18.40;99.90;;;;;;6238924;23;20020;-82
2023/09/22 11:59:08;;;;;;;7.80;6.93;;;18.30;99.90;;;;;;6214325;23;20402;-83
2023/09/22 12:01:34;;;;;;;7.97;7.38;;;18.30;99.90;;;;;;6213961;23;20427;-83
2023/09/22 12:04:01;;;;;;;6.05;5.55;;;18.30;99.90;;;;;;6189120;23;20070;-83
2023/09/22 12:06:27;;;;;;;8.25;7.45;;;18.30;99.90;;;;;;6241124;23;20663;-83
2023/09/22 12:08:52;;;;;;;9.20;5.38;;;18.40;99.90;;;;;;6214292;23;20016;-83
2023/09/22 12:11:18;;;;;;;7.75;7.15;;;18.30;99.90;;;;;;6213617;23;20261;-82
2023/09/22 12:13:46;;;;;;;8.32;7.72;;;18.30;99.90;;;;;;6214238;23;20065;-83
2023/09/22 12:16:13;;;;;;;8.50;7.80;;;18.30;99.90;;;;;;6213960;23;20434;-83
2023/09/22 12:18:38;;;;;;;5.45;4.95;;;18.40;99.90;;;;;;6239397;23;20259;-84
2023/09/22 12:21:04;;;;;;;5.13;4.72;;;18.40;99.90;;;;;;6188939;23;20016;-84
2023/09/22 12:23:31;;;;;;;5.63;5.13;;;18.20;99.90;;;;;;6239428;23;20012;-83
2023/09/22 12:25:57;;;;;;;6.25;5.75;;;18.30;99.90;;;;;;6213137;23;20271;-83
2023/09/22 12:28:23;;;;;;;6.70;6.20;;;18.30;99.90;;;;;;6214550;23;20061;-83
2023/09/22 12:30:50;;;;;;;5.97;5.47;;;18.20;99.90;;;;;;6239871;23;20028;-83
2023/09/22 12:33:16;;;;;;;9.50;7.07;;;18.20;99.90;;;;;;6213721;23;20016;-83